Time;durP1;ratioP1;P1;durP2;ratioP2;P2;SDS_P1;SDS_P2;PMS_P1;PMS_P2;Temp;Humidity;BMP_temperature;BMP_pressure;BME280_temperature;BME280_humidity;BME280_pressure;Samples;Min_cycle;Max_cycle;Signal;HPM_P1;HPM_P2
2021/11/01 00:01:08;;;;;;;15.75;8.68;;;;;;;;;;5076237;28;20050;-64
2021/11/01 00:03:37;;;;;;;16.20;8.98;;;;;;;;;;5074649;28;20047;-63
2021/11/01 00:06:05;;;;;;;15.10;7.95;;;;;;;;;;5075899;28;20577;-65
2021/11/01 00:08:33;;;;;;;12.27;7.22;;;;;;;;;;5076295;28;20062;-63
2021/11/01 00:11:00;;;;;;;22.42;11.63;;;;;;;;;;5075293;28;20477;-65
2021/11/01 00:13:28;;;;;;;15.55;9.40;;;;;;;;;;5088946;28;20048;-64
2021/11/01 00:15:58;;;;;;;14.35;7.63;;;;;;;;;;5091674;28;20048;-64
2021/11/01 00:18:26;;;;;;;16.20;9.13;;;;;;;;;;5092070;28;20093;-65
2021/11/01 00:20:57;;;;;;;15.98;7.57;;;;;;;;;;5091952;28;20074;-64
2021/11/01 00:23:24;;;;;;;17.48;8.52;;;;;;;;;;5092319;28;20479;-65
2021/11/01 00:25:51;;;;;;;11.82;6.50;;;;;;;;;;5091820;28;20062;-65
2021/11/01 00:28:18;;;;;;;12.23;7.95;;;;;;;;;;5092095;28;20044;-64
2021/11/01 00:30:45;;;;;;;15.70;8.00;;;;;;;;;;5092968;28;20078;-64
2021/11/01 00:33:12;;;;;;;13.20;7.63;;;;;;;;;;5094317;28;20052;-64
2021/11/01 00:35:40;;;;;;;13.48;7.93;;;;;;;;;;5094245;28;20056;-64
2021/11/01 00:38:09;;;;;;;14.52;9.50;;;;;;;;;;5094616;28;20385;-64
2021/11/01 00:40:38;;;;;;;14.48;7.63;;;;;;;;;;5094168;28;20044;-64
2021/11/01 00:43:05;;;;;;;12.27;7.40;;;;;;;;;;5094167;28;20055;-64
2021/11/01 00:45:32;;;;;;;15.20;8.02;;;;;;;;;;5094351;28;20048;-64
2021/11/01 00:48:00;;;;;;;14.32;9.18;;;;;;;;;;5094050;28;20082;-63
2021/11/01 00:50:28;;;;;;;15.63;9.02;;;;;;;;;;5093945;28;20048;-64
2021/11/01 00:52:56;;;;;;;16.15;8.25;;;;;;;;;;5094404;28;20059;-64
2021/11/01 00:55:26;;;;;;;15.75;8.65;;;;;;;;;;5093773;28;20079;-64
2021/11/01 00:57:53;;;;;;;;;;;;;;;;;;5094528;28;20048;-63
2021/11/01 01:00:22;;;;;;;13.75;8.00;;;;;;;;;;5094368;28;19927;-64
2021/11/01 01:02:49;;;;;;;16.33;9.80;;;;;;;;;;5094647;28;20462;-64
2021/11/01 01:05:17;;;;;;;12.52;7.95;;;;;;;;;;5093776;28;20477;-64
2021/11/01 01:07:44;;;;;;;15.80;9.82;;;;;;;;;;5094067;28;20060;-63
2021/11/01 01:10:12;;;;;;;16.67;9.60;;;;;;;;;;5093731;28;20377;-64
2021/11/01 01:12:42;;;;;;;21.02;10.77;;;;;;;;;;5094321;28;20474;-64
2021/11/01 01:15:13;;;;;;;16.70;10.20;;;;;;;;;;5096419;28;20127;-64
2021/11/01 01:17:42;;;;;;;20.08;9.43;;;;;;;;;;5097560;28;20055;-65
2021/11/01 01:20:13;;;;;;;14.80;8.48;;;;;;;;;;5097261;28;20060;-64
2021/11/01 01:22:40;;;;;;;16.80;10.98;;;;;;;;;;5097431;28;20040;-65
2021/11/01 01:25:17;;;;;;;16.98;9.05;;;;;;;;;;5096793;28;20485;-65
2021/11/01 01:27:46;;;;;;;15.45;8.80;;;;;;;;;;5097201;28;20054;-65
2021/11/01 01:30:14;;;;;;;18.30;9.20;;;;;;;;;;5097185;28;20056;-64
2021/11/01 01:32:42;;;;;;;18.10;9.10;;;;;;;;;;5097798;28;20115;-64
2021/11/01 01:35:11;;;;;;;13.55;9.18;;;;;;;;;;5096862;28;20058;-65
2021/11/01 01:37:39;;;;;;;15.82;8.50;;;;;;;;;;5097497;28;20082;-64
2021/11/01 01:40:08;;;;;;;19.05;9.52;;;;;;;;;;5097189;28;20499;-64
2021/11/01 01:42:36;;;;;;;17.88;9.95;;;;;;;;;;5097731;28;20055;-64
2021/11/01 01:45:07;;;;;;;14.40;9.70;;;;;;;;;;5096706;28;20040;-65
2021/11/01 01:47:35;;;;;;;16.63;10.32;;;;;;;;;;5096425;28;20044;-64
2021/11/01 01:50:04;;;;;;;19.50;11.65;;;;;;;;;;5096631;28;20044;-63
2021/11/01 01:52:31;;;;;;;19.15;12.18;;;;;;;;;;5096771;28;20040;-64
2021/11/01 01:54:58;;;;;;;19.38;11.77;;;;;;;;;;5096686;28;20058;-65
2021/11/01 01:57:26;;;;;;;20.75;10.65;;;;;;;;;;5096999;28;20084;-63
2021/11/01 01:59:53;;;;;;;19.45;11.48;;;;;;;;;;5096695;28;20044;-64
2021/11/01 02:02:22;;;;;;;21.60;11.77;;;;;;;;;;5097005;28;20105;-65
2021/11/01 02:04:50;;;;;;;20.85;11.68;;;;;;;;;;5096201;28;20047;-65
2021/11/01 02:07:29;;;;;;;21.23;11.55;;;;;;;;;;5096802;28;20098;-65
2021/11/01 02:10:01;;;;;;;20.65;10.70;;;;;;;;;;5096957;28;20051;-65
2021/11/01 02:12:33;;;;;;;18.25;11.15;;;;;;;;;;5096432;28;20189;-64
2021/11/01 02:15:06;;;;;;;16.40;9.77;;;;;;;;;;5096207;28;20052;-64
2021/11/01 02:17:36;;;;;;;22.10;11.40;;;;;;;;;;5096471;28;20062;-65
2021/11/01 02:20:07;;;;;;;18.23;10.75;;;;;;;;;;5096579;28;20051;-64
2021/11/01 02:22:42;;;;;;;18.30;10.55;;;;;;;;;;5095897;28;20078;-63
2021/11/01 02:25:12;;;;;;;16.98;9.60;;;;;;;;;;5094738;28;20044;-63
2021/11/01 02:27:43;;;;;;;19.80;12.50;;;;;;;;;;5095827;28;20044;-64
2021/11/01 02:30:14;;;;;;;18.70;11.10;;;;;;;;;;5096197;28;20060;-63
2021/11/01 02:32:42;;;;;;;;;;;;;;;;;;5096965;28;20055;-64
2021/11/01 02:35:11;;;;;;;17.67;10.38;;;;;;;;;;5095707;28;20014;-64
2021/11/01 02:37:38;;;;;;;18.30;10.63;;;;;;;;;;5095484;28;20048;-64
2021/11/01 02:40:07;;;;;;;22.65;11.32;;;;;;;;;;5095511;28;20044;-64
2021/11/01 02:42:35;;;;;;;18.63;9.82;;;;;;;;;;5095695;28;20056;-64
2021/11/01 02:45:08;;;;;;;19.13;10.30;;;;;;;;;;5095126;28;20557;-64
2021/11/01 02:47:35;;;;;;;21.27;11.82;;;;;;;;;;5096280;28;20048;-64
2021/11/01 02:50:05;;;;;;;19.52;9.88;;;;;;;;;;5095353;28;20419;-64
2021/11/01 02:52:32;;;;;;;17.27;9.90;;;;;;;;;;5095291;28;20072;-64
2021/11/01 02:55:01;;;;;;;17.38;8.85;;;;;;;;;;5095484;28;20508;-64
2021/11/01 02:57:28;;;;;;;15.93;9.43;;;;;;;;;;5094638;28;20097;-64
2021/11/01 02:59:55;;;;;;;15.82;8.85;;;;;;;;;;5095377;28;20079;-64
2021/11/01 03:02:24;;;;;;;19.42;10.07;;;;;;;;;;5095273;28;20052;-64
2021/11/01 03:04:52;;;;;;;16.63;8.80;;;;;;;;;;5094888;28;20073;-63
2021/11/01 03:07:22;;;;;;;15.00;7.93;;;;;;;;;;5095462;28;20059;-64
2021/11/01 03:09:50;;;;;;;18.73;9.40;;;;;;;;;;5095558;28;20443;-64
2021/11/01 03:12:19;;;;;;;14.25;7.50;;;;;;;;;;5094683;28;20048;-64
2021/11/01 03:14:52;;;;;;;13.32;7.28;;;;;;;;;;5095286;28;20048;-64
2021/11/01 03:17:23;;;;;;;11.32;7.18;;;;;;;;;;5091517;28;20082;-64
2021/11/01 03:19:57;;;;;;;13.02;7.63;;;;;;;;;;5095244;28;20131;-65
2021/11/01 03:22:24;;;;;;;12.57;7.25;;;;;;;;;;5095006;28;20132;-64
2021/11/01 03:25:00;;;;;;;15.18;7.07;;;;;;;;;;5094546;28;20044;-64
2021/11/01 03:27:32;;;;;;;15.13;7.65;;;;;;;;;;5089672;28;20055;-64
2021/11/01 03:30:00;;;;;;;13.13;7.25;;;;;;;;;;5094661;28;20087;-63
2021/11/01 03:32:27;;;;;;;14.43;7.22;;;;;;;;;;5094797;28;20047;-63
2021/11/01 03:34:57;;;;;;;14.23;7.50;;;;;;;;;;5095471;28;20048;-64
2021/11/01 03:37:25;;;;;;;17.02;8.23;;;;;;;;;;5094146;28;20052;-65
2021/11/01 03:39:52;;;;;;;14.40;8.00;;;;;;;;;;5094956;28;20105;-64
2021/11/01 03:42:21;;;;;;;15.88;8.52;;;;;;;;;;5093943;28;20412;-64
2021/11/01 03:44:52;;;;;;;14.30;8.25;;;;;;;;;;5094533;28;20130;-64
2021/11/01 03:47:21;;;;;;;16.27;7.90;;;;;;;;;;5094823;28;20044;-64
2021/11/01 03:49:55;;;;;;;16.48;9.18;;;;;;;;;;5094740;28;20079;-64
2021/11/01 03:52:27;;;;;;;12.13;7.70;;;;;;;;;;5094669;28;20090;-64
2021/11/01 03:54:54;;;;;;;15.25;7.82;;;;;;;;;;5094925;28;20059;-65
2021/11/01 03:57:23;;;;;;;13.68;7.65;;;;;;;;;;5094263;28;20052;-64
2021/11/01 03:59:52;;;;;;;15.63;7.85;;;;;;;;;;5095118;28;20473;-65
2021/11/01 04:02:21;;;;;;;14.15;7.78;;;;;;;;;;5094793;28;20163;-65
2021/11/01 04:04:50;;;;;;;14.55;7.68;;;;;;;;;;5094577;28;20471;-65
2021/11/01 04:07:18;;;;;;;13.63;6.70;;;;;;;;;;5094673;28;20048;-64
2021/11/01 04:09:47;;;;;;;15.15;8.30;;;;;;;;;;5094376;28;20048;-65
2021/11/01 04:12:15;;;;;;;12.40;7.18;;;;;;;;;;5094928;28;20504;-65
2021/11/01 04:14:44;;;;;;;12.88;7.53;;;;;;;;;;5094117;28;20142;-65
2021/11/01 04:17:20;;;;;;;13.73;7.47;;;;;;;;;;5094596;28;20048;-64
2021/11/01 04:19:55;;;;;;;13.77;7.93;;;;;;;;;;5094157;28;20054;-64
2021/11/01 04:22:23;;;;;;;13.27;6.50;;;;;;;;;;5094095;28;20485;-65
2021/11/01 04:24:51;;;;;;;12.52;6.70;;;;;;;;;;5094135;28;20043;-65
2021/11/01 04:27:18;;;;;;;13.05;6.53;;;;;;;;;;5094181;28;20055;-64
2021/11/01 04:29:46;;;;;;;12.50;6.55;;;;;;;;;;5094259;28;20097;-65
2021/11/01 04:32:20;;;;;;;13.73;7.30;;;;;;;;;;5093958;28;20087;-64
2021/11/01 04:34:52;;;;;;;11.85;7.07;;;;;;;;;;5093876;28;20463;-65
2021/11/01 04:37:20;;;;;;;15.52;8.52;;;;;;;;;;5093942;28;20067;-64
2021/11/01 04:40:01;;;;;;;11.07;7.00;;;;;;;;;;5093744;28;20060;-63
2021/11/01 04:53:30;;;;;;;12.43;6.47;;;;;;;;;;5097599;28;20515;-63
2021/11/01 04:55:57;;;;;;;12.98;6.10;;;;;;;;;;5098014;28;20112;-65
2021/11/01 04:58:25;;;;;;;9.40;5.15;;;;;;;;;;5097959;28;20052;-65
2021/11/01 05:00:53;;;;;;;11.18;5.75;;;;;;;;;;5097484;28;20058;-65
2021/11/01 05:03:31;;;;;;;10.30;5.80;;;;;;;;;;5097440;28;20048;-65
2021/11/01 05:05:59;;;;;;;10.35;5.55;;;;;;;;;;5096728;28;20048;-63
2021/11/01 05:08:32;;;;;;;10.77;5.25;;;;;;;;;;5098025;28;20083;-64
2021/11/01 05:11:04;;;;;;;9.43;4.70;;;;;;;;;;5097363;28;20044;-64
2021/11/01 05:13:36;;;;;;;12.50;5.75;;;;;;;;;;5097647;28;20105;-64
2021/11/01 05:16:09;;;;;;;10.00;5.78;;;;;;;;;;5096897;28;20051;-63
2021/11/01 05:18:40;;;;;;;8.88;4.97;;;;;;;;;;5115425;22;20481;-59
2021/11/01 05:21:19;;;;;;;12.48;5.68;;;;;;;;;;5115712;28;20079;-60
2021/11/01 05:23:53;;;;;;;10.38;5.40;;;;;;;;;;5115707;28;20051;-60
2021/11/01 05:26:27;;;;;;;10.32;5.43;;;;;;;;;;5114946;28;20146;-59
2021/11/01 05:28:59;;;;;;;11.75;6.00;;;;;;;;;;5115614;28;20182;-58
2021/11/01 05:31:27;;;;;;;10.48;5.30;;;;;;;;;;5115012;28;20204;-60
2021/11/01 05:34:01;;;;;;;9.50;5.22;;;;;;;;;;5115188;28;20094;-60
2021/11/01 05:36:28;;;;;;;10.60;5.28;;;;;;;;;;5115030;28;20496;-59
2021/11/01 05:38:56;;;;;;;8.85;4.95;;;;;;;;;;5115068;28;20126;-62
2021/11/01 05:41:23;;;;;;;9.85;5.60;;;;;;;;;;5115046;28;20050;-61
2021/11/01 05:43:51;;;;;;;11.25;5.55;;;;;;;;;;5114984;28;20144;-62
2021/11/01 05:46:19;;;;;;;12.25;6.40;;;;;;;;;;5114711;28;20047;-60
2021/11/01 05:48:51;;;;;;;9.77;5.07;;;;;;;;;;5114859;28;20077;-60
2021/11/01 05:51:19;;;;;;;10.45;5.80;;;;;;;;;;5115259;28;20052;-61
2021/11/01 05:53:50;;;;;;;14.60;7.10;;;;;;;;;;5115031;28;20044;-60
2021/11/01 05:56:43;;;;;;;11.43;5.72;;;;;;;;;;5114377;28;20138;-62
2021/11/01 05:59:37;;;;;;;8.88;5.43;;;;;;;;;;5114890;28;20083;-60
2021/11/01 06:02:32;;;;;;;9.48;5.35;;;;;;;;;;5113994;28;20055;-59
2021/11/01 06:05:08;;;;;;;11.52;5.93;;;;;;;;;;5114557;28;20313;-59
2021/11/01 06:07:42;;;;;;;11.65;5.93;;;;;;;;;;5114390;28;20055;-60
2021/11/01 06:10:12;;;;;;;10.35;5.85;;;;;;;;;;5114406;28;20104;-60
2021/11/01 06:15:27;;;;;;;12.23;6.15;;;;;;;;;;5114215;28;20055;-60
2021/11/01 06:17:56;;;;;;;10.90;5.88;;;;;;;;;;5114409;28;20067;-61
2021/11/01 06:20:23;;;;;;;11.57;6.18;;;;;;;;;;5114681;28;20093;-61
2021/11/01 06:22:52;;;;;;;11.80;6.55;;;;;;;;;;5114793;28;20047;-59
2021/11/01 06:25:19;;;;;;;12.13;6.40;;;;;;;;;;5114280;28;20112;-60
2021/11/01 06:27:47;;;;;;;12.63;7.05;;;;;;;;;;5114989;28;20047;-61
2021/11/01 06:30:22;;;;;;;13.63;8.13;;;;;;;;;;5114261;28;20075;-61
2021/11/01 06:32:59;;;;;;;15.70;8.73;;;;;;;;;;5114603;28;20055;-61
2021/11/01 06:41:15;;;;;;;18.35;11.18;;;;;;;;;;5113941;28;20119;-60
2021/11/01 06:43:57;;;;;;;22.35;12.63;;;;;;;;;;5114090;28;20069;-61
2021/11/01 06:55:05;;;;;;;22.40;13.77;;;;;;;;;;5096333;28;20518;-61
2021/11/01 06:57:39;;;;;;;24.15;12.50;;;;;;;;;;5113487;28;20047;-61
2021/11/01 07:14:17;;;;;;;21.52;13.65;;;;;;;;;;5113378;28;20427;-61
2021/11/01 07:16:48;;;;;;;21.45;13.45;;;;;;;;;;5113307;28;20083;-60
2021/11/01 07:19:24;;;;;;;20.63;14.05;;;;;;;;;;5113170;28;20138;-60
2021/11/01 07:22:14;;;;;;;20.77;13.75;;;;;;;;;;5113050;28;20082;-60
2021/11/01 07:25:21;;;;;;;22.25;12.80;;;;;;;;;;5113034;28;20048;-60
2021/11/01 08:22:59;;;;;;;19.52;11.07;;;;;;;;;;5112592;28;20153;-61
2021/11/01 08:28:31;;;;;;;18.55;11.43;;;;;;;;;;5116590;28;20515;-60
2021/11/01 08:45:22;;;;;;;22.63;14.65;;;;;;;;;;5072694;28;20392;-63
2021/11/01 09:05:10;;;;;;;25.88;13.80;;;;;;;;;;5115612;28;20058;-60
2021/11/01 09:13:32;;;;;;;17.30;9.55;;;;;;;;;;5115607;28;20047;-62
2021/11/01 09:19:14;;;;;;;18.33;8.48;;;;;;;;;;5115455;28;20419;-61
2021/11/01 09:22:06;;;;;;;14.35;7.18;;;;;;;;;;5115693;28;20059;-62
2021/11/01 09:24:39;;;;;;;15.02;7.60;;;;;;;;;;5115581;28;20415;-60
2021/11/01 09:27:08;;;;;;;15.65;8.02;;;;;;;;;;5115470;28;20054;-62
2021/11/01 09:29:51;;;;;;;17.85;8.90;;;;;;;;;;5115287;28;20051;-61
2021/11/01 09:43:19;;;;;;;14.10;7.40;;;;;;;;;;5115330;28;20062;-61
2021/11/01 09:45:47;;;;;;;14.40;7.93;;;;;;;;;;5114943;28;20062;-61
2021/11/01 09:48:15;;;;;;;14.25;9.10;;;;;;;;;;5115072;28;20052;-62
2021/11/01 09:50:42;;;;;;;17.88;10.40;;;;;;;;;;5115027;28;20051;-62
2021/11/01 09:53:16;;;;;;;15.85;8.02;;;;;;;;;;5115178;28;20043;-61
2021/11/01 09:55:55;;;;;;;17.00;9.70;;;;;;;;;;5114992;28;20058;-61
2021/11/01 10:01:09;;;;;;;13.07;7.30;;;;;;;;;;5115083;28;20195;-63
2021/11/01 10:03:41;;;;;;;18.25;10.38;;;;;;;;;;5114297;28;20420;-63
2021/11/01 10:06:12;;;;;;;12.32;5.80;;;;;;;;;;5114783;28;20419;-65
2021/11/01 10:08:40;;;;;;;;;;;;;;;;;;5115700;28;20047;-67
2021/11/01 10:11:19;;;;;;;10.63;6.03;;;;;;;;;;5115462;28;20277;-67
2021/11/01 10:13:52;;;;;;;11.93;5.93;;;;;;;;;;5115093;28;20453;-65
2021/11/01 10:19:29;;;;;;;15.65;7.97;;;;;;;;;;5114819;28;20058;-66
2021/11/01 10:21:59;;;;;;;87.18;30.23;;;;;;;;;;5115112;28;20134;-68
2021/11/01 10:24:32;;;;;;;46.53;21.07;;;;;;;;;;5115131;28;20055;-61
2021/11/01 10:26:59;;;;;;;18.75;9.73;;;;;;;;;;5114635;28;20056;-64
2021/11/01 10:29:28;;;;;;;14.98;8.10;;;;;;;;;;5114781;28;20520;-63
2021/11/01 10:31:58;;;;;;;14.23;7.22;;;;;;;;;;5114426;28;20043;-62
2021/11/01 10:34:31;;;;;;;22.30;8.48;;;;;;;;;;5114462;28;20052;-64
2021/11/01 10:36:59;;;;;;;13.82;6.65;;;;;;;;;;5114027;28;20138;-64
2021/11/01 10:39:31;;;;;;;10.15;4.78;;;;;;;;;;5114247;28;20058;-62
2021/11/01 10:42:11;;;;;;;11.18;5.30;;;;;;;;;;5114214;28;20420;-63
2021/11/01 10:45:03;;;;;;;11.77;6.07;;;;;;;;;;5113905;28;20056;-63
2021/11/01 11:12:58;;;;;;;9.05;4.65;;;;;;;;;;5100497;28;20109;-63
2021/11/01 11:15:28;;;;;;;10.27;5.10;;;;;;;;;;5113950;28;20056;-62
2021/11/01 11:21:01;;;;;;;8.98;4.47;;;;;;;;;;5107920;28;20043;-61
2021/11/01 11:26:24;;;;;;;8.68;5.22;;;;;;;;;;5119184;28;20074;-81
2021/11/01 11:32:16;;;;;;;7.43;3.63;;;;;;;;;;5087337;28;20048;-80
2021/11/01 11:41:01;;;;;;;7.88;2.22;;;;;;;;;;5115737;28;20070;-81
2021/11/01 11:43:44;;;;;;;4.90;2.00;;;;;;;;;;5107659;28;20055;-80
2021/11/01 11:49:25;;;;;;;4.50;1.73;;;;;;;;;;5099249;28;20059;-82
2021/11/01 11:51:56;;;;;;;5.32;2.03;;;;;;;;;;5095965;28;20102;-82
2021/11/01 11:54:32;;;;;;;8.00;2.05;;;;;;;;;;5100640;28;20125;-83
2021/11/01 11:57:03;;;;;;;7.10;3.15;;;;;;;;;;5106403;28;20048;-83
2021/11/01 11:59:34;;;;;;;12.25;7.38;;;;;;;;;;5095999;28;20048;-80
2021/11/01 12:02:07;;;;;;;6.63;3.13;;;;;;;;;;5086247;28;20177;-82
2021/11/01 12:04:42;;;;;;;9.80;3.45;;;;;;;;;;5079611;28;20058;-81
2021/11/01 12:07:13;;;;;;;10.98;4.88;;;;;;;;;;5083226;28;20071;-82
2021/11/01 12:09:53;;;;;;;9.02;2.92;;;;;;;;;;5080138;28;20044;-82
2021/11/01 12:17:50;;;;;;;11.13;4.18;;;;;;;;;;5079645;28;20110;-82
2021/11/01 12:20:20;;;;;;;6.53;2.75;;;;;;;;;;5081331;28;20040;-82
2021/11/01 12:22:50;;;;;;;5.70;2.20;;;;;;;;;;5088104;28;20587;-83
2021/11/01 12:25:22;;;;;;;;;;;;;;;;;;5087299;28;20048;-80
2021/11/01 12:28:00;;;;;;;6.82;2.10;;;;;;;;;;5078329;28;19928;-81
2021/11/01 12:30:37;;;;;;;9.20;2.85;;;;;;;;;;5080879;28;20045;-83
2021/11/01 12:33:05;;;;;;;7.32;2.50;;;;;;;;;;5084668;28;20072;-82
2021/11/01 12:35:36;;;;;;;6.75;2.20;;;;;;;;;;5094614;28;20047;-84
2021/11/01 12:38:10;;;;;;;6.88;2.70;;;;;;;;;;5096667;28;20068;-82
2021/11/01 12:40:47;;;;;;;6.75;2.00;;;;;;;;;;5091662;28;20068;-83
2021/11/01 12:43:31;;;;;;;3.63;1.55;;;;;;;;;;5085446;28;20049;-83
2021/11/01 18:51:51;;;;;;;5.43;2.22;;;;;;;;;;5069648;28;20103;-57
2021/11/01 18:54:24;;;;;;;5.05;2.30;;;;;;;;;;5069774;28;20464;-60
2021/11/01 18:56:56;;;;;;;3.75;1.95;;;;;;;;;;5069344;28;20084;-60
2021/11/01 18:59:27;;;;;;;6.53;2.10;;;;;;;;;;5069387;28;20051;-54
2021/11/01 19:02:11;;;;;;;4.35;1.50;;;;;;;;;;5069432;28;20057;-58
2021/11/01 19:04:43;;;;;;;3.90;2.10;;;;;;;;;;5069735;28;20472;-57
2021/11/01 19:07:16;;;;;;;4.60;1.85;;;;;;;;;;5070096;28;20486;-57
2021/11/01 19:09:57;;;;;;;5.03;1.80;;;;;;;;;;5069433;28;20106;-58
2021/11/01 20:05:23;;;;;;;5.88;2.10;;;;;;;;;;5043872;28;20541;-58
2021/11/01 20:11:04;;;;;;;5.45;2.25;;;;;;;;;;5054839;28;20183;-59
2021/11/01 20:13:45;;;;;;;6.78;2.90;;;;;;;;;;5055184;28;20057;-59
2021/11/01 21:26:21;;;;;;;7.45;3.25;;;;;;;;;;5053893;28;20060;-56
2021/11/01 21:28:52;;;;;;;5.10;2.65;;;;;;;;;;5053565;28;20052;-58
2021/11/01 21:31:22;;;;;;;5.85;2.28;;;;;;;;;;5053772;28;20053;-55
2021/11/01 21:33:52;;;;;;;9.40;2.60;;;;;;;;;;5054035;28;20053;-55
2021/11/01 21:36:26;;;;;;;7.15;2.83;;;;;;;;;;5053493;28;20048;-54
2021/11/01 21:38:56;;;;;;;5.78;3.20;;;;;;;;;;5053809;28;20449;-60
2021/11/01 21:41:25;;;;;;;9.60;4.35;;;;;;;;;;5053954;28;20144;-60
2021/11/01 21:43:52;;;;;;;9.05;4.07;;;;;;;;;;5053689;28;20053;-56
2021/11/01 21:46:19;;;;;;;9.85;3.92;;;;;;;;;;5053494;28;20091;-57
2021/11/01 21:48:46;;;;;;;8.63;4.38;;;;;;;;;;5053546;28;20421;-56
2021/11/01 21:51:15;;;;;;;9.73;3.28;;;;;;;;;;5053790;28;20367;-56
2021/11/01 21:53:46;;;;;;;7.13;3.55;;;;;;;;;;5052933;28;20053;-56
2021/11/01 21:56:15;;;;;;;6.82;2.83;;;;;;;;;;5052436;28;20599;-55
2021/11/01 21:59:09;;;;;;;6.22;2.80;;;;;;;;;;5052454;28;20102;-56
2021/11/01 22:10:16;;;;;;;5.22;2.08;;;;;;;;;;5052408;28;20085;-56
2021/11/01 22:18:17;;;;;;;5.10;1.90;;;;;;;;;;5052024;28;20056;-53
2021/11/01 22:20:47;;;;;;;3.97;1.50;;;;;;;;;;5051936;28;20053;-54
2021/11/01 22:23:17;;;;;;;4.63;1.75;;;;;;;;;;5051944;28;20059;-55
2021/11/01 22:25:48;;;;;;;4.07;1.80;;;;;;;;;;5051917;28;20441;-56
2021/11/01 22:34:12;;;;;;;3.85;1.83;;;;;;;;;;5052169;28;20163;-56
2021/11/01 22:39:27;;;;;;;10.27;4.35;;;;;;;;;;5051936;28;20195;-60
2021/11/01 22:44:55;;;;;;;8.73;2.47;;;;;;;;;;5048079;28;20055;-59
2021/11/01 22:55:54;;;;;;;4.88;1.77;;;;;;;;;;5051821;28;20060;-62
2021/11/01 22:58:23;;;;;;;3.40;1.42;;;;;;;;;;5051599;28;20091;-60
2021/11/01 23:00:56;;;;;;;4.13;1.52;;;;;;;;;;5051440;28;20055;-57
2021/11/01 23:03:26;;;;;;;5.18;1.98;;;;;;;;;;5051906;28;20064;-59
2021/11/01 23:33:27;;;;;;;3.15;1.08;;;;;;;;;;5055320;28;20520;-59
2021/11/01 23:35:55;;;;;;;3.90;1.23;;;;;;;;;;5054597;28;20053;-60
2021/11/01 23:38:22;;;;;;;6.30;1.77;;;;;;;;;;5044967;22;20499;-59
2021/11/01 23:40:50;;;;;;;4.25;1.60;;;;;;;;;;5020234;28;20061;-59
2021/11/01 23:43:18;;;;;;;3.60;1.45;;;;;;;;;;5034791;28;20050;-57
2021/11/01 23:45:46;;;;;;;5.03;1.40;;;;;;;;;;5034685;28;20107;-57
2021/11/01 23:48:16;;;;;;;4.55;1.60;;;;;;;;;;5034876;28;20505;-58
2021/11/01 23:50:46;;;;;;;4.55;1.73;;;;;;;;;;5034786;28;20054;-57
2021/11/01 23:53:16;;;;;;;4.70;1.70;;;;;;;;;;5034540;28;20088;-57
2021/11/01 23:55:43;;;;;;;5.43;2.00;;;;;;;;;;5034658;28;20832;-54
2021/11/01 23:58:11;;;;;;;4.07;1.58;;;;;;;;;;5034298;28;20076;-55
